Wetterdaten: Woche 18.07.11 - 24.07.11 (KW29)
Datum Zeit Temperatur Luftfeuchte Luftdruck Niederschlag Windrichtung Sonnenschein Solar Wind
18.07.2011 00:00 11,0 C 98 % 1006,3 hPa 0,0 l/m S-SW 0,00 h 0 W/m 8,4 km/h (2 Bft)
18.07.2011 01:00 10,8 C 98 % 1006,2 hPa 0,0 l/m S-SW 0,00 h 0 W/m 8,2 km/h (2 Bft)
18.07.2011 02:00 10,6 C 98 % 1006,1 hPa 0,0 l/m S-SW 0,00 h 0 W/m 7,5 km/h (2 Bft)
18.07.2011 03:00 10,3 C 98 % 1006,1 hPa 0,0 l/m SW 0,00 h 0 W/m 6,5 km/h (2 Bft)
18.07.2011 04:00 10,1 C 98 % 1005,9 hPa 0,0 l/m SW 0,00 h 0 W/m 6,8 km/h (2 Bft)
18.07.2011 05:00 9,7 C 98 % 1006,0 hPa 0,0 l/m SW 0,00 h 6 W/m 7,1 km/h (2 Bft)
18.07.2011 06:00 9,8 C 98 % 1006,1 hPa 0,0 l/m SW 0,00 h 27 W/m 6,8 km/h (2 Bft)
18.07.2011 07:00 11,1 C 98 % 1006,2 hPa 0,0 l/m S-SW 0,25 h 114 W/m 8,7 km/h (2 Bft)
18.07.2011 08:00 12,4 C 93 % 1006,5 hPa 0,0 l/m W-SW 0,25 h 185 W/m 12,1 km/h (2 Bft)
18.07.2011 09:00 14,0 C 82 % 1006,6 hPa 0,0 l/m W 0,50 h 342 W/m 17,3 km/h (3 Bft)
18.07.2011 10:00 14,7 C 77 % 1006,5 hPa 0,0 l/m W-SW 0,17 h 211 W/m 15,0 km/h (3 Bft)
18.07.2011 11:00 15,5 C 74 % 1006,5 hPa 0,0 l/m W-SW 0,17 h 373 W/m 15,0 km/h (3 Bft)
18.07.2011 12:00 16,2 C 68 % 1006,4 hPa 0,0 l/m W-SW 0,25 h 469 W/m 22,4 km/h (4 Bft)
18.07.2011 13:00 17,2 C 62 % 1006,5 hPa 0,0 l/m SW 0,33 h 468 W/m 23,4 km/h (4 Bft)
18.07.2011 14:00 17,6 C 61 % 1006,2 hPa 0,0 l/m W 0,42 h 475 W/m 20,6 km/h (4 Bft)
18.07.2011 15:00 18,7 C 54 % 1005,9 hPa 0,0 l/m W-SW 0,42 h 555 W/m 24,0 km/h (4 Bft)
18.07.2011 16:00 18,4 C 55 % 1005,9 hPa 0,0 l/m SW 0,58 h 600 W/m 24,5 km/h (4 Bft)
18.07.2011 17:00 17,9 C 55 % 1005,8 hPa 0,0 l/m W-SW 0,17 h 209 W/m 20,4 km/h (4 Bft)
18.07.2011 18:00 17,9 C 58 % 1005,7 hPa 0,0 l/m SW 0,42 h 271 W/m 19,7 km/h (3 Bft)
18.07.2011 19:00 16,6 C 68 % 1005,8 hPa 0,0 l/m SW 0,08 h 98 W/m 17,4 km/h (3 Bft)
18.07.2011 20:00 15,2 C 75 % 1006,0 hPa 0,0 l/m SW 0,08 h 35 W/m 10,1 km/h (2 Bft)
18.07.2011 21:00 13,6 C 82 % 1006,4 hPa 0,0 l/m SW 0,00 h 8 W/m 5,5 km/h (1 Bft)
18.07.2011 22:00 12,2 C 87 % 1006,9 hPa 0,0 l/m SW 0,00 h 0 W/m 3,9 km/h (1 Bft)
18.07.2011 23:00 11,1 C 90 % 1006,9 hPa 0,0 l/m N 0,00 h 0 W/m 0,1 km/h (0 Bft)
19.07.2011 00:00 10,2 C 93 % 1006,8 hPa 0,0 l/m N 0,00 h 0 W/m 0,4 km/h (0 Bft)
19.07.2011 01:00 9,5 C 95 % 1006,3 hPa 0,0 l/m N 0,00 h 0 W/m 0,3 km/h (0 Bft)
19.07.2011 02:00 9,7 C 96 % 1005,8 hPa 0,0 l/m N 0,00 h 0 W/m 0,8 km/h (0 Bft)
19.07.2011 03:00 9,2 C 96 % 1005,2 hPa 0,0 l/m N 0,00 h 0 W/m 0,7 km/h (0 Bft)
19.07.2011 04:00 9,1 C 97 % 1004,6 hPa 0,0 l/m N 0,00 h 0 W/m 1,1 km/h (0 Bft)
19.07.2011 05:00 9,7 C 97 % 1004,3 hPa 0,0 l/m W 0,00 h 6 W/m 3,6 km/h (1 Bft)
19.07.2011 06:00 9,9 C 95 % 1003,8 hPa 0,0 l/m W-NW 0,00 h 15 W/m 5,1 km/h (1 Bft)
19.07.2011 07:00 10,2 C 94 % 1003,8 hPa 0,0 l/m NW 0,00 h 31 W/m 7,5 km/h (2 Bft)
19.07.2011 08:00 11,1 C 92 % 1003,8 hPa 0,0 l/m N-NW 0,00 h 90 W/m 7,2 km/h (2 Bft)
19.07.2011 09:00 14,1 C 82 % 1003,5 hPa 0,0 l/m NO 0,67 h 465 W/m 11,1 km/h (2 Bft)
19.07.2011 10:00 16,9 C 65 % 1003,2 hPa 0,0 l/m O 0,58 h 473 W/m 14,4 km/h (3 Bft)
19.07.2011 11:00 18,3 C 60 % 1002,4 hPa 0,0 l/m O 0,92 h 835 W/m 18,0 km/h (3 Bft)
19.07.2011 12:00 19,5 C 57 % 1002,3 hPa 0,0 l/m O 0,92 h 791 W/m 13,6 km/h (3 Bft)
19.07.2011 13:00 20,3 C 57 % 1002,0 hPa 0,0 l/m NO 0,83 h 741 W/m 12,2 km/h (2 Bft)
19.07.2011 14:00 20,9 C 55 % 1001,2 hPa 0,0 l/m NO 0,75 h 658 W/m 12,8 km/h (3 Bft)
19.07.2011 15:00 20,9 C 56 % 1000,7 hPa 0,0 l/m N-NO 0,25 h 335 W/m 12,2 km/h (2 Bft)
19.07.2011 16:00 20,4 C 61 % 1000,7 hPa 0,0 l/m NO 0,00 h 137 W/m 7,8 km/h (2 Bft)
19.07.2011 17:00 19,4 C 68 % 1000,5 hPa 0,0 l/m N 0,00 h 136 W/m 9,7 km/h (2 Bft)
19.07.2011 18:00 18,5 C 72 % 1000,5 hPa 0,0 l/m NW 0,00 h 26 W/m 7,5 km/h (2 Bft)
19.07.2011 19:00 16,5 C 82 % 1001,2 hPa 5,8 l/m S-SW 0,00 h 13 W/m 10,6 km/h (2 Bft)
19.07.2011 20:00 13,1 C 95 % 1002,4 hPa 30,0 l/m O-SO 0,00 h 0 W/m 6,3 km/h (2 Bft)
19.07.2011 21:00 12,6 C 96 % 1003,3 hPa 12,4 l/m W 0,00 h 0 W/m 27,9 km/h (4 Bft)
19.07.2011 22:00 11,5 C 96 % 1004,3 hPa 4,8 l/m W 0,00 h 0 W/m 26,8 km/h (4 Bft)
19.07.2011 23:00 11,2 C 96 % 1004,9 hPa 4,0 l/m W 0,00 h 0 W/m 18,0 km/h (3 Bft)
20.07.2011 00:00 11,2 C 96 % 1005,2 hPa 1,8 l/m W-SW 0,00 h 0 W/m 13,4 km/h (3 Bft)
20.07.2011 01:00 11,0 C 96 % 1005,2 hPa 1,4 l/m W-SW 0,00 h 0 W/m 16,1 km/h (3 Bft)
20.07.2011 02:00 10,7 C 96 % 1005,1 hPa 0,0 l/m W 0,00 h 0 W/m 17,4 km/h (3 Bft)
20.07.2011 03:00 10,3 C 94 % 1005,0 hPa 0,0 l/m W-SW 0,00 h 0 W/m 18,9 km/h (3 Bft)
20.07.2011 04:00 10,3 C 94 % 1005,0 hPa 0,0 l/m W 0,00 h 0 W/m 18,0 km/h (3 Bft)
20.07.2011 05:00 10,4 C 95 % 1005,1 hPa 0,0 l/m W 0,00 h 0 W/m 16,9 km/h (3 Bft)
20.07.2011 06:00 10,3 C 95 % 1005,4 hPa 0,0 l/m W 0,00 h 10 W/m 17,6 km/h (3 Bft)
20.07.2011 07:00 10,5 C 96 % 1005,6 hPa 0,2 l/m W-SW 0,00 h 33 W/m 18,4 km/h (3 Bft)
20.07.2011 08:00 10,9 C 95 % 1005,8 hPa 0,0 l/m W-SW 0,00 h 75 W/m 18,5 km/h (3 Bft)
20.07.2011 09:00 11,6 C 94 % 1006,0 hPa 0,0 l/m W-SW 0,00 h 115 W/m 21,6 km/h (4 Bft)
20.07.2011 10:00 12,3 C 93 % 1006,1 hPa 0,0 l/m W 0,00 h 129 W/m 18,1 km/h (3 Bft)
20.07.2011 11:00 12,6 C 93 % 1006,4 hPa 0,8 l/m W 0,00 h 136 W/m 18,6 km/h (3 Bft)
20.07.2011 12:00 12,8 C 93 % 1007,0 hPa 1,4 l/m W 0,00 h 124 W/m 18,8 km/h (3 Bft)
20.07.2011 13:00 12,7 C 96 % 1007,4 hPa 1,4 l/m W 0,00 h 156 W/m 16,4 km/h (3 Bft)
20.07.2011 14:00 13,2 C 96 % 1007,6 hPa 0,8 l/m W 0,00 h 164 W/m 17,0 km/h (3 Bft)
20.07.2011 15:00 12,9 C 96 % 1008,5 hPa 2,2 l/m W 0,00 h 119 W/m 19,0 km/h (3 Bft)
20.07.2011 16:00 12,9 C 96 % 1009,1 hPa 2,2 l/m W 0,00 h 114 W/m 15,6 km/h (3 Bft)
20.07.2011 17:00 12,9 C 95 % 1009,4 hPa 0,4 l/m W-NW 0,00 h 70 W/m 18,6 km/h (3 Bft)
20.07.2011 18:00 12,5 C 96 % 1009,8 hPa 0,2 l/m W 0,00 h 29 W/m 16,1 km/h (3 Bft)
20.07.2011 19:00 12,2 C 96 % 1010,1 hPa 0,0 l/m W 0,00 h 14 W/m 11,9 km/h (2 Bft)
20.07.2011 20:00 12,0 C 97 % 1010,4 hPa 0,2 l/m W-SW 0,00 h 5 W/m 9,7 km/h (2 Bft)
20.07.2011 21:00 11,9 C 98 % 1010,6 hPa 0,2 l/m SW 0,00 h 0 W/m 9,1 km/h (2 Bft)
20.07.2011 22:00 12,1 C 98 % 1010,8 hPa 0,0 l/m SW 0,00 h 0 W/m 11,6 km/h (2 Bft)
20.07.2011 23:00 11,9 C 98 % 1011,0 hPa 0,0 l/m W-SW 0,00 h 0 W/m 13,7 km/h (3 Bft)
21.07.2011 00:00 11,9 C 98 % 1010,9 hPa 0,0 l/m SW 0,00 h 0 W/m 9,8 km/h (2 Bft)
21.07.2011 01:00 11,8 C 98 % 1010,9 hPa 0,0 l/m S-SO 0,00 h 0 W/m 4,7 km/h (1 Bft)
21.07.2011 02:00 11,6 C 98 % 1010,6 hPa 0,0 l/m S-SO 0,00 h 0 W/m 2,7 km/h (1 Bft)
21.07.2011 03:00 10,9 C 98 % 1010,0 hPa 0,0 l/m SW 0,00 h 0 W/m 6,2 km/h (2 Bft)
21.07.2011 04:00 10,2 C 99 % 1009,5 hPa 0,0 l/m SW 0,00 h 0 W/m 3,7 km/h (1 Bft)
21.07.2011 05:00 9,7 C 98 % 1009,5 hPa 0,0 l/m SW 0,00 h 6 W/m 2,5 km/h (1 Bft)
21.07.2011 06:00 9,3 C 99 % 1009,3 hPa 0,0 l/m N 0,00 h 22 W/m 0,1 km/h (0 Bft)
21.07.2011 07:00 9,7 C 99 % 1009,0 hPa 0,0 l/m N 0,00 h 87 W/m 0,9 km/h (0 Bft)
21.07.2011 08:00 11,8 C 100 % 1008,7 hPa 0,0 l/m N-NW 0,83 h 339 W/m 2,4 km/h (1 Bft)
21.07.2011 09:00 14,3 C 94 % 1008,5 hPa 0,0 l/m SO 0,58 h 414 W/m 6,2 km/h (2 Bft)
21.07.2011 10:00 16,1 C 82 % 1008,3 hPa 0,2 l/m S-SW 0,83 h 645 W/m 9,8 km/h (2 Bft)
21.07.2011 11:00 17,2 C 75 % 1008,1 hPa 0,0 l/m W-SW 0,58 h 554 W/m 9,4 km/h (2 Bft)
21.07.2011 12:00 17,8 C 71 % 1007,7 hPa 0,0 l/m W-SW 0,17 h 370 W/m 9,0 km/h (2 Bft)
21.07.2011 13:00 16,1 C 79 % 1007,7 hPa 0,8 l/m W 0,00 h 96 W/m 11,7 km/h (2 Bft)
21.07.2011 14:00 15,5 C 85 % 1008,0 hPa 0,2 l/m W 0,08 h 353 W/m 18,9 km/h (3 Bft)
21.07.2011 15:00 15,6 C 80 % 1008,2 hPa 0,0 l/m W-SW 0,08 h 272 W/m 19,0 km/h (3 Bft)
21.07.2011 16:00 16,7 C 77 % 1008,0 hPa 0,0 l/m W 0,67 h 465 W/m 19,8 km/h (4 Bft)
21.07.2011 17:00 16,9 C 76 % 1007,9 hPa 0,0 l/m W-SW 0,75 h 423 W/m 17,7 km/h (3 Bft)
21.07.2011 18:00 16,2 C 80 % 1007,8 hPa 0,0 l/m W 0,00 h 125 W/m 15,8 km/h (3 Bft)
21.07.2011 19:00 15,9 C 81 % 1007,9 hPa 0,0 l/m W-SW 0,17 h 104 W/m 14,6 km/h (3 Bft)
21.07.2011 20:00 15,2 C 85 % 1008,2 hPa 0,0 l/m W-SW 0,00 h 18 W/m 12,4 km/h (3 Bft)
21.07.2011 21:00 14,3 C 92 % 1008,5 hPa 0,2 l/m W-SW 0,00 h 0 W/m 5,6 km/h (1 Bft)
21.07.2011 22:00 13,8 C 96 % 1008,6 hPa 0,4 l/m N 0,00 h 0 W/m 1,3 km/h (1 Bft)
21.07.2011 23:00 13,5 C 97 % 1008,7 hPa 0,0 l/m SW 0,00 h 0 W/m 6,6 km/h (2 Bft)
22.07.2011 00:00 12,8 C 96 % 1008,8 hPa 0,0 l/m SW 0,00 h 0 W/m 7,8 km/h (2 Bft)
22.07.2011 01:00 12,8 C 95 % 1008,6 hPa 0,0 l/m W-SW 0,00 h 0 W/m 6,3 km/h (2 Bft)
22.07.2011 02:00 12,3 C 96 % 1008,4 hPa 0,0 l/m W-SW 0,00 h 0 W/m 6,3 km/h (2 Bft)
22.07.2011 03:00 12,6 C 96 % 1008,3 hPa 0,0 l/m W-SW 0,00 h 0 W/m 10,7 km/h (2 Bft)
22.07.2011 04:00 12,9 C 95 % 1008,1 hPa 0,0 l/m W-SW 0,00 h 0 W/m 9,5 km/h (2 Bft)
22.07.2011 05:00 12,8 C 97 % 1008,2 hPa 0,0 l/m SW 0,00 h 0 W/m 8,0 km/h (2 Bft)
22.07.2011 06:00 13,1 C 96 % 1008,3 hPa 0,0 l/m W-SW 0,00 h 19 W/m 10,8 km/h (2 Bft)
22.07.2011 07:00 13,5 C 95 % 1008,3 hPa 0,0 l/m W-SW 0,00 h 51 W/m 9,0 km/h (2 Bft)
22.07.2011 08:00 13,8 C 94 % 1008,4 hPa 0,2 l/m W 0,00 h 82 W/m 9,9 km/h (2 Bft)
22.07.2011 09:00 14,6 C 93 % 1008,5 hPa 0,0 l/m W-NW 0,08 h 200 W/m 9,5 km/h (2 Bft)
22.07.2011 10:00 15,8 C 86 % 1008,6 hPa 1,4 l/m W-NW 0,08 h 266 W/m 12,2 km/h (2 Bft)
22.07.2011 11:00 14,8 C 94 % 1008,7 hPa 1,4 l/m W-SW 0,00 h 156 W/m 9,8 km/h (2 Bft)
22.07.2011 12:00 13,7 C 95 % 1009,4 hPa 3,8 l/m N-NW 0,00 h 120 W/m 9,6 km/h (2 Bft)
22.07.2011 13:00 14,9 C 91 % 1009,1 hPa 0,0 l/m NW 0,00 h 317 W/m 7,4 km/h (2 Bft)
22.07.2011 14:00 16,2 C 87 % 1008,7 hPa 0,0 l/m W-SW 0,00 h 310 W/m 8,2 km/h (2 Bft)
22.07.2011 15:00 17,5 C 81 % 1008,8 hPa 0,0 l/m W-SW 0,50 h 552 W/m 13,3 km/h (3 Bft)
22.07.2011 16:00 15,6 C 91 % 1009,0 hPa 2,0 l/m W-SW 0,00 h 68 W/m 19,7 km/h (3 Bft)
22.07.2011 17:00 15,0 C 95 % 1009,1 hPa 0,8 l/m SW 0,17 h 205 W/m 10,7 km/h (2 Bft)
22.07.2011 18:00 15,6 C 93 % 1009,1 hPa 0,0 l/m SW 0,17 h 155 W/m 8,6 km/h (2 Bft)
22.07.2011 19:00 15,5 C 92 % 1009,1 hPa 0,0 l/m SW 0,25 h 124 W/m 7,8 km/h (2 Bft)
22.07.2011 20:00 14,9 C 93 % 1009,2 hPa 0,0 l/m S-SW 0,25 h 39 W/m 3,9 km/h (1 Bft)
22.07.2011 21:00 13,6 C 94 % 1009,7 hPa 0,0 l/m N-NW 0,00 h 5 W/m 6,6 km/h (2 Bft)
22.07.2011 22:00 12,5 C 94 % 1010,1 hPa 0,2 l/m N-NW 0,00 h 0 W/m 2,4 km/h (1 Bft)
22.07.2011 23:00 12,2 C 96 % 1010,0 hPa 0,0 l/m N 0,00 h 0 W/m 0,5 km/h (0 Bft)
23.07.2011 00:00 12,0 C 97 % 1009,7 hPa 0,0 l/m N 0,00 h 0 W/m 0,1 km/h (0 Bft)
23.07.2011 01:00 11,3 C 98 % 1009,6 hPa 0,0 l/m N 0,00 h 0 W/m 0,0 km/h (0 Bft)
23.07.2011 02:00 11,3 C 98 % 1009,5 hPa 0,0 l/m N 0,00 h 0 W/m 0,0 km/h (0 Bft)
23.07.2011 03:00 11,4 C 99 % 1009,3 hPa 0,0 l/m N 0,00 h 0 W/m 0,1 km/h (0 Bft)
23.07.2011 04:00 11,4 C 99 % 1009,2 hPa 0,0 l/m N 0,00 h 0 W/m 0,0 km/h (0 Bft)
23.07.2011 05:00 11,7 C 99 % 1009,2 hPa 0,4 l/m N 0,00 h 0 W/m 0,7 km/h (0 Bft)
23.07.2011 06:00 11,7 C 99 % 1009,2 hPa 0,6 l/m N 0,00 h 6 W/m 6,2 km/h (2 Bft)
23.07.2011 07:00 11,0 C 98 % 1009,3 hPa 5,0 l/m N-NO 0,00 h 16 W/m 5,4 km/h (1 Bft)
23.07.2011 08:00 11,3 C 98 % 1009,4 hPa 0,4 l/m N 0,00 h 42 W/m 0,7 km/h (0 Bft)
23.07.2011 09:00 11,7 C 98 % 1009,5 hPa 0,4 l/m N 0,00 h 50 W/m 2,0 km/h (1 Bft)
23.07.2011 10:00 12,4 C 97 % 1009,5 hPa 0,0 l/m N-NO 0,00 h 175 W/m 3,2 km/h (1 Bft)
23.07.2011 11:00 12,1 C 95 % 1009,8 hPa 2,4 l/m N-NW 0,00 h 137 W/m 8,0 km/h (2 Bft)
23.07.2011 12:00 13,7 C 90 % 1009,8 hPa 0,0 l/m N 0,08 h 358 W/m 8,2 km/h (2 Bft)
23.07.2011 13:00 14,2 C 85 % 1009,6 hPa 0,2 l/m N-NW 0,00 h 252 W/m 9,8 km/h (2 Bft)
23.07.2011 14:00 16,0 C 76 % 1009,2 hPa 0,0 l/m NW 0,67 h 783 W/m 11,4 km/h (2 Bft)
23.07.2011 15:00 16,4 C 72 % 1009,1 hPa 0,0 l/m SW 0,00 h 284 W/m 14,9 km/h (3 Bft)
23.07.2011 16:00 14,7 C 88 % 1009,1 hPa 0,2 l/m S-SW 0,33 h 311 W/m 20,8 km/h (4 Bft)
23.07.2011 17:00 15,2 C 85 % 1009,0 hPa 0,0 l/m S-SW 0,17 h 181 W/m 17,2 km/h (3 Bft)
23.07.2011 18:00 14,6 C 89 % 1008,5 hPa 0,0 l/m SW 0,00 h 95 W/m 14,4 km/h (3 Bft)
23.07.2011 19:00 14,4 C 87 % 1008,5 hPa 0,0 l/m W 0,17 h 89 W/m 9,7 km/h (2 Bft)
23.07.2011 20:00 14,2 C 87 % 1008,5 hPa 0,0 l/m SW 0,58 h 48 W/m 9,0 km/h (2 Bft)
23.07.2011 21:00 12,7 C 92 % 1008,5 hPa 0,0 l/m SW 0,00 h 7 W/m 4,4 km/h (1 Bft)
23.07.2011 22:00 11,4 C 95 % 1008,6 hPa 0,0 l/m W-SW 0,00 h 0 W/m 2,1 km/h (1 Bft)
23.07.2011 23:00 10,3 C 97 % 1008,5 hPa 0,0 l/m N 0,00 h 0 W/m 0,1 km/h (0 Bft)
24.07.2011 00:00 9,6 C 98 % 1008,4 hPa 0,0 l/m W-SW 0,00 h 0 W/m 0,8 km/h (0 Bft)
24.07.2011 01:00 10,4 C 95 % 1008,7 hPa 0,4 l/m W-NW 0,00 h 0 W/m 13,4 km/h (3 Bft)
24.07.2011 02:00 10,1 C 95 % 1008,9 hPa 0,8 l/m W-NW 0,00 h 0 W/m 10,7 km/h (2 Bft)
24.07.2011 03:00 10,1 C 95 % 1009,2 hPa 0,0 l/m W-SW 0,00 h 0 W/m 5,1 km/h (1 Bft)
24.07.2011 04:00 9,9 C 96 % 1009,2 hPa 0,2 l/m W-SW 0,00 h 0 W/m 4,4 km/h (1 Bft)
24.07.2011 05:00 9,8 C 97 % 1009,6 hPa 0,2 l/m W-SW 0,00 h 0 W/m 5,2 km/h (1 Bft)
24.07.2011 06:00 9,5 C 97 % 1010,0 hPa 1,2 l/m W-NW 0,00 h 21 W/m 6,4 km/h (2 Bft)
24.07.2011 07:00 9,8 C 97 % 1010,4 hPa 0,0 l/m W-NW 0,08 h 94 W/m 7,0 km/h (2 Bft)
24.07.2011 08:00 10,3 C 93 % 1010,8 hPa 0,0 l/m W 0,17 h 175 W/m 14,2 km/h (3 Bft)
24.07.2011 09:00 11,1 C 88 % 1011,2 hPa 0,0 l/m W-SW 0,17 h 157 W/m 14,6 km/h (3 Bft)
24.07.2011 10:00 11,2 C 88 % 1011,6 hPa 0,0 l/m W 0,08 h 195 W/m 12,5 km/h (3 Bft)
24.07.2011 11:00 11,9 C 81 % 1011,9 hPa 0,0 l/m W-NW 0,08 h 358 W/m 12,1 km/h (2 Bft)
24.07.2011 12:00 12,9 C 73 % 1011,7 hPa 0,0 l/m W 0,25 h 383 W/m 18,6 km/h (3 Bft)
24.07.2011 13:00 14,0 C 68 % 1011,3 hPa 0,0 l/m W-SW 0,33 h 468 W/m 18,0 km/h (3 Bft)
24.07.2011 14:00 15,6 C 63 % 1010,7 hPa 0,0 l/m SW 0,58 h 598 W/m 17,6 km/h (3 Bft)
24.07.2011 15:00 14,6 C 65 % 1010,9 hPa 0,0 l/m W-SW 0,00 h 134 W/m 12,1 km/h (2 Bft)
24.07.2011 16:00 14,0 C 65 % 1011,1 hPa 0,0 l/m NW 0,00 h 101 W/m 11,8 km/h (2 Bft)
24.07.2011 17:00 13,2 C 71 % 1011,4 hPa 0,0 l/m W-NW 0,00 h 54 W/m 10,6 km/h (2 Bft)
24.07.2011 18:00 12,7 C 75 % 1011,5 hPa 0,0 l/m W 0,00 h 40 W/m 6,2 km/h (2 Bft)
24.07.2011 19:00 12,5 C 77 % 1011,5 hPa 0,0 l/m W 0,00 h 49 W/m 6,3 km/h (2 Bft)
24.07.2011 20:00 12,0 C 81 % 1011,6 hPa 0,0 l/m W-SW 0,00 h 13 W/m 5,5 km/h (1 Bft)
24.07.2011 21:00 11,5 C 83 % 1011,9 hPa 0,0 l/m SW 0,00 h 0 W/m 7,4 km/h (2 Bft)
24.07.2011 22:00 11,2 C 84 % 1012,1 hPa 0,0 l/m SW 0,00 h 0 W/m 7,5 km/h (2 Bft)
24.07.2011 23:00 10,8 C 86 % 1012,1 hPa 0,0 l/m SW 0,00 h 0 W/m 7,1 km/h (2 Bft)
Min-Datum _ 19.07.11 18.07.11 19.07.11 - - - - 18.07.11
_ Min-Zeit 04:05 15:10 18:05 - - - - 23:05
Minimum _ 8,9 C 52 % 1000,3 hPa - - - - 0,0 km/h (0 Bft)
Max-Datum _ 19.07.11 21.07.11 24.07.11 19.07.11 - 18.07.11 23.07.11 19.07.11
_ Max-Zeit 14:40 08:15 22:20 20:05 - 07:15 14:35 21:35
Maximum _ 21,4 C 100 % 1012,2 hPa 30,0 l/m - 0,08 h 1120 W/m 38,6 km/h
W-NW (5 Bft)
Durchschnitt _ 13,2 C 88 % 1007,8 hPa #94,2 l/m W-SW #19:00 h 210 W/m 10,4 km/h (2 Bft)